sensor_id;sensor_type;location;lat;lon;timestamp;P1;durP1;ratioP1;P2;durP2;ratioP2
39524;SDS011;25203;50.754;6.978;2024-01-30T00:00:45;12.23;;;8.23;;
39524;SDS011;25203;50.754;6.978;2024-01-30T00:02:46;12.75;;;9.18;;
39524;SDS011;25203;50.754;6.978;2024-01-30T00:04:47;12.68;;;8.70;;
39524;SDS011;25203;50.754;6.978;2024-01-30T00:06:47;11.52;;;8.15;;
39524;SDS011;25203;50.754;6.978;2024-01-30T00:08:48;11.07;;;7.90;;
39524;SDS011;25203;50.754;6.978;2024-01-30T00:10:51;14.95;;;8.32;;
39524;SDS011;25203;50.754;6.978;2024-01-30T00:12:51;17.85;;;9.57;;
39524;SDS011;25203;50.754;6.978;2024-01-30T00:14:52;14.20;;;8.63;;
39524;SDS011;25203;50.754;6.978;2024-01-30T00:16:53;12.18;;;7.90;;
39524;SDS011;25203;50.754;6.978;2024-01-30T00:18:54;15.27;;;8.70;;
39524;SDS011;25203;50.754;6.978;2024-01-30T00:20:54;12.95;;;8.38;;
39524;SDS011;25203;50.754;6.978;2024-01-30T00:22:55;14.55;;;8.45;;
39524;SDS011;25203;50.754;6.978;2024-01-30T00:24:56;14.90;;;10.15;;
39524;SDS011;25203;50.754;6.978;2024-01-30T00:26:56;14.32;;;10.07;;
39524;SDS011;25203;50.754;6.978;2024-01-30T00:28:57;16.13;;;11.50;;
39524;SDS011;25203;50.754;6.978;2024-01-30T00:30:57;17.88;;;11.55;;
39524;SDS011;25203;50.754;6.978;2024-01-30T00:32:58;17.55;;;11.68;;
39524;SDS011;25203;50.754;6.978;2024-01-30T00:34:58;20.50;;;12.52;;
39524;SDS011;25203;50.754;6.978;2024-01-30T00:36:59;18.05;;;12.18;;
39524;SDS011;25203;50.754;6.978;2024-01-30T00:39:00;22.95;;;11.95;;
39524;SDS011;25203;50.754;6.978;2024-01-30T00:41:00;21.67;;;11.77;;
39524;SDS011;25203;50.754;6.978;2024-01-30T00:43:04;20.35;;;11.38;;
39524;SDS011;25203;50.754;6.978;2024-01-30T00:45:05;16.10;;;10.48;;
39524;SDS011;25203;50.754;6.978;2024-01-30T00:47:06;15.70;;;10.68;;
39524;SDS011;25203;50.754;6.978;2024-01-30T00:49:07;19.77;;;10.40;;
39524;SDS011;25203;50.754;6.978;2024-01-30T00:51:08;16.77;;;10.02;;
39524;SDS011;25203;50.754;6.978;2024-01-30T00:53:08;17.42;;;10.68;;
39524;SDS011;25203;50.754;6.978;2024-01-30T00:55:09;14.48;;;9.63;;
39524;SDS011;25203;50.754;6.978;2024-01-30T00:57:09;17.27;;;9.75;;
39524;SDS011;25203;50.754;6.978;2024-01-30T00:59:10;18.05;;;10.15;;
39524;SDS011;25203;50.754;6.978;2024-01-30T01:01:11;17.27;;;9.38;;
39524;SDS011;25203;50.754;6.978;2024-01-30T01:03:12;13.85;;;8.73;;
39524;SDS011;25203;50.754;6.978;2024-01-30T01:05:14;14.90;;;10.25;;
39524;SDS011;25203;50.754;6.978;2024-01-30T01:07:14;14.93;;;8.88;;
39524;SDS011;25203;50.754;6.978;2024-01-30T01:09:15;18.45;;;9.63;;
39524;SDS011;25203;50.754;6.978;2024-01-30T01:11:16;16.88;;;9.68;;
39524;SDS011;25203;50.754;6.978;2024-01-30T01:13:17;24.25;;;10.68;;
39524;SDS011;25203;50.754;6.978;2024-01-30T01:15:17;21.35;;;9.75;;
39524;SDS011;25203;50.754;6.978;2024-01-30T01:17:18;16.92;;;10.68;;
39524;SDS011;25203;50.754;6.978;2024-01-30T01:19:19;14.43;;;10.15;;
39524;SDS011;25203;50.754;6.978;2024-01-30T01:21:19;13.00;;;8.98;;
39524;SDS011;25203;50.754;6.978;2024-01-30T01:23:20;15.65;;;10.30;;
39524;SDS011;25203;50.754;6.978;2024-01-30T01:25:20;14.73;;;9.60;;
39524;SDS011;25203;50.754;6.978;2024-01-30T01:27:21;20.08;;;9.82;;
39524;SDS011;25203;50.754;6.978;2024-01-30T01:29:22;16.65;;;9.30;;
39524;SDS011;25203;50.754;6.978;2024-01-30T01:31:28;13.93;;;8.85;;
39524;SDS011;25203;50.754;6.978;2024-01-30T01:33:29;13.05;;;9.18;;
39524;SDS011;25203;50.754;6.978;2024-01-30T01:35:30;14.63;;;9.18;;
39524;SDS011;25203;50.754;6.978;2024-01-30T01:37:31;13.95;;;9.85;;
39524;SDS011;25203;50.754;6.978;2024-01-30T01:39:31;17.83;;;9.65;;
39524;SDS011;25203;50.754;6.978;2024-01-30T01:41:32;18.90;;;9.35;;
39524;SDS011;25203;50.754;6.978;2024-01-30T01:43:33;12.95;;;8.43;;
39524;SDS011;25203;50.754;6.978;2024-01-30T01:45:33;12.23;;;8.75;;
39524;SDS011;25203;50.754;6.978;2024-01-30T01:47:34;14.77;;;8.40;;
39524;SDS011;25203;50.754;6.978;2024-01-30T01:49:35;13.82;;;9.07;;
39524;SDS011;25203;50.754;6.978;2024-01-30T01:51:36;17.08;;;8.73;;
39524;SDS011;25203;50.754;6.978;2024-01-30T01:53:38;14.02;;;8.93;;
39524;SDS011;25203;50.754;6.978;2024-01-30T01:55:39;14.75;;;8.02;;
39524;SDS011;25203;50.754;6.978;2024-01-30T01:57:40;9.05;;;6.70;;
39524;SDS011;25203;50.754;6.978;2024-01-30T01:59:41;12.48;;;7.47;;
39524;SDS011;25203;50.754;6.978;2024-01-30T02:01:42;13.02;;;7.30;;
39524;SDS011;25203;50.754;6.978;2024-01-30T02:03:43;9.57;;;7.28;;
39524;SDS011;25203;50.754;6.978;2024-01-30T02:05:44;12.75;;;7.82;;
39524;SDS011;25203;50.754;6.978;2024-01-30T02:07:45;10.82;;;7.60;;
39524;SDS011;25203;50.754;6.978;2024-01-30T02:09:46;10.00;;;7.35;;
39524;SDS011;25203;50.754;6.978;2024-01-30T02:11:46;12.52;;;7.47;;
39524;SDS011;25203;50.754;6.978;2024-01-30T02:13:47;11.25;;;6.80;;
39524;SDS011;25203;50.754;6.978;2024-01-30T02:15:49;11.30;;;6.97;;
39524;SDS011;25203;50.754;6.978;2024-01-30T02:17:50;11.35;;;7.63;;
39524;SDS011;25203;50.754;6.978;2024-01-30T02:19:51;9.00;;;6.80;;
39524;SDS011;25203;50.754;6.978;2024-01-30T02:21:52;10.65;;;6.75;;
39524;SDS011;25203;50.754;6.978;2024-01-30T02:23:53;10.65;;;7.68;;
39524;SDS011;25203;50.754;6.978;2024-01-30T02:25:55;16.33;;;7.60;;
39524;SDS011;25203;50.754;6.978;2024-01-30T02:27:55;14.55;;;8.88;;
39524;SDS011;25203;50.754;6.978;2024-01-30T02:29:56;11.35;;;7.72;;
39524;SDS011;25203;50.754;6.978;2024-01-30T02:31:56;9.90;;;7.15;;
39524;SDS011;25203;50.754;6.978;2024-01-30T02:33:57;12.20;;;7.43;;
39524;SDS011;25203;50.754;6.978;2024-01-30T02:35:58;9.55;;;7.03;;
39524;SDS011;25203;50.754;6.978;2024-01-30T02:37:58;14.18;;;8.30;;
39524;SDS011;25203;50.754;6.978;2024-01-30T02:39:59;13.75;;;8.23;;
39524;SDS011;25203;50.754;6.978;2024-01-30T02:41:59;14.43;;;8.07;;
39524;SDS011;25203;50.754;6.978;2024-01-30T02:44:00;12.63;;;8.25;;
39524;SDS011;25203;50.754;6.978;2024-01-30T02:46:01;12.07;;;7.57;;
39524;SDS011;25203;50.754;6.978;2024-01-30T02:48:02;11.00;;;7.28;;
39524;SDS011;25203;50.754;6.978;2024-01-30T02:50:03;14.45;;;7.93;;
39524;SDS011;25203;50.754;6.978;2024-01-30T02:52:04;11.48;;;7.47;;
39524;SDS011;25203;50.754;6.978;2024-01-30T02:54:04;11.73;;;7.78;;
39524;SDS011;25203;50.754;6.978;2024-01-30T02:56:05;12.75;;;7.72;;
39524;SDS011;25203;50.754;6.978;2024-01-30T02:58:09;14.43;;;7.93;;
39524;SDS011;25203;50.754;6.978;2024-01-30T03:00:10;15.75;;;8.35;;
39524;SDS011;25203;50.754;6.978;2024-01-30T03:02:11;14.82;;;8.55;;
39524;SDS011;25203;50.754;6.978;2024-01-30T03:04:11;17.58;;;8.73;;
39524;SDS011;25203;50.754;6.978;2024-01-30T03:06:12;10.88;;;7.70;;
39524;SDS011;25203;50.754;6.978;2024-01-30T03:08:15;12.10;;;7.32;;
39524;SDS011;25203;50.754;6.978;2024-01-30T03:10:15;12.27;;;7.13;;
39524;SDS011;25203;50.754;6.978;2024-01-30T03:12:16;15.77;;;7.28;;
39524;SDS011;25203;50.754;6.978;2024-01-30T03:14:16;12.40;;;7.32;;
39524;SDS011;25203;50.754;6.978;2024-01-30T03:16:17;13.00;;;7.20;;
39524;SDS011;25203;50.754;6.978;2024-01-30T03:18:18;11.60;;;7.57;;
39524;SDS011;25203;50.754;6.978;2024-01-30T03:20:18;12.20;;;8.23;;
39524;SDS011;25203;50.754;6.978;2024-01-30T03:22:19;14.18;;;8.23;;
39524;SDS011;25203;50.754;6.978;2024-01-30T03:24:19;16.55;;;8.00;;
39524;SDS011;25203;50.754;6.978;2024-01-30T03:26:20;13.15;;;7.47;;
39524;SDS011;25203;50.754;6.978;2024-01-30T03:28:21;12.18;;;8.20;;
39524;SDS011;25203;50.754;6.978;2024-01-30T03:30:21;14.00;;;8.00;;
39524;SDS011;25203;50.754;6.978;2024-01-30T03:32:22;12.70;;;7.22;;
39524;SDS011;25203;50.754;6.978;2024-01-30T03:34:23;13.50;;;8.13;;
39524;SDS011;25203;50.754;6.978;2024-01-30T03:36:23;9.85;;;7.18;;
39524;SDS011;25203;50.754;6.978;2024-01-30T03:38:24;13.00;;;8.10;;
39524;SDS011;25203;50.754;6.978;2024-01-30T03:40:24;15.10;;;8.48;;
39524;SDS011;25203;50.754;6.978;2024-01-30T03:42:25;14.77;;;8.07;;
39524;SDS011;25203;50.754;6.978;2024-01-30T03:44:25;14.48;;;7.45;;
39524;SDS011;25203;50.754;6.978;2024-01-30T03:46:26;14.15;;;8.07;;
39524;SDS011;25203;50.754;6.978;2024-01-30T03:48:27;14.18;;;8.07;;
39524;SDS011;25203;50.754;6.978;2024-01-30T03:50:27;11.23;;;7.60;;
39524;SDS011;25203;50.754;6.978;2024-01-30T03:52:28;11.73;;;7.95;;
39524;SDS011;25203;50.754;6.978;2024-01-30T03:54:28;10.90;;;7.72;;
39524;SDS011;25203;50.754;6.978;2024-01-30T03:56:29;16.52;;;7.80;;
39524;SDS011;25203;50.754;6.978;2024-01-30T03:58:29;14.00;;;8.77;;
39524;SDS011;25203;50.754;6.978;2024-01-30T04:00:30;12.10;;;7.90;;
39524;SDS011;25203;50.754;6.978;2024-01-30T04:02:31;11.45;;;8.00;;
39524;SDS011;25203;50.754;6.978;2024-01-30T04:04:31;13.10;;;7.63;;
39524;SDS011;25203;50.754;6.978;2024-01-30T04:06:32;12.75;;;8.00;;
39524;SDS011;25203;50.754;6.978;2024-01-30T04:08:33;11.05;;;7.43;;
39524;SDS011;25203;50.754;6.978;2024-01-30T04:10:33;14.15;;;7.90;;
39524;SDS011;25203;50.754;6.978;2024-01-30T04:12:34;12.05;;;7.57;;
39524;SDS011;25203;50.754;6.978;2024-01-30T04:14:34;12.63;;;7.57;;
39524;SDS011;25203;50.754;6.978;2024-01-30T04:16:38;12.98;;;8.25;;
39524;SDS011;25203;50.754;6.978;2024-01-30T04:18:38;14.93;;;7.55;;
39524;SDS011;25203;50.754;6.978;2024-01-30T04:20:39;12.15;;;7.55;;
39524;SDS011;25203;50.754;6.978;2024-01-30T04:22:39;14.23;;;8.20;;
39524;SDS011;25203;50.754;6.978;2024-01-30T04:24:40;9.23;;;6.85;;
39524;SDS011;25203;50.754;6.978;2024-01-30T04:26:41;8.13;;;6.70;;
39524;SDS011;25203;50.754;6.978;2024-01-30T04:28:42;14.95;;;8.38;;
39524;SDS011;25203;50.754;6.978;2024-01-30T04:30:44;13.68;;;7.45;;
39524;SDS011;25203;50.754;6.978;2024-01-30T04:32:44;12.00;;;8.00;;
39524;SDS011;25203;50.754;6.978;2024-01-30T04:34:45;13.93;;;7.85;;
39524;SDS011;25203;50.754;6.978;2024-01-30T04:36:46;12.68;;;8.85;;
39524;SDS011;25203;50.754;6.978;2024-01-30T04:38:46;12.50;;;9.13;;
39524;SDS011;25203;50.754;6.978;2024-01-30T04:40:47;14.50;;;7.82;;
39524;SDS011;25203;50.754;6.978;2024-01-30T04:42:47;13.40;;;9.38;;
39524;SDS011;25203;50.754;6.978;2024-01-30T04:44:48;13.45;;;8.43;;
39524;SDS011;25203;50.754;6.978;2024-01-30T04:46:49;15.68;;;8.43;;
39524;SDS011;25203;50.754;6.978;2024-01-30T04:48:50;20.50;;;8.90;;
39524;SDS011;25203;50.754;6.978;2024-01-30T04:50:50;14.40;;;8.98;;
39524;SDS011;25203;50.754;6.978;2024-01-30T04:52:51;12.30;;;8.50;;
39524;SDS011;25203;50.754;6.978;2024-01-30T04:54:51;12.35;;;8.25;;
39524;SDS011;25203;50.754;6.978;2024-01-30T04:56:52;17.23;;;8.48;;
39524;SDS011;25203;50.754;6.978;2024-01-30T04:58:53;10.82;;;8.10;;
39524;SDS011;25203;50.754;6.978;2024-01-30T05:00:53;12.65;;;8.40;;
39524;SDS011;25203;50.754;6.978;2024-01-30T05:02:57;12.25;;;8.32;;
39524;SDS011;25203;50.754;6.978;2024-01-30T05:04:58;15.75;;;8.05;;
39524;SDS011;25203;50.754;6.978;2024-01-30T05:06:58;14.27;;;8.23;;
39524;SDS011;25203;50.754;6.978;2024-01-30T05:08:59;13.77;;;8.15;;
39524;SDS011;25203;50.754;6.978;2024-01-30T05:11:00;10.90;;;7.85;;
39524;SDS011;25203;50.754;6.978;2024-01-30T05:13:01;12.70;;;8.05;;
39524;SDS011;25203;50.754;6.978;2024-01-30T05:15:02;10.80;;;7.45;;
39524;SDS011;25203;50.754;6.978;2024-01-30T05:17:03;17.23;;;8.93;;
39524;SDS011;25203;50.754;6.978;2024-01-30T05:19:04;14.35;;;8.70;;
39524;SDS011;25203;50.754;6.978;2024-01-30T05:21:05;15.30;;;8.65;;
39524;SDS011;25203;50.754;6.978;2024-01-30T05:23:05;12.73;;;8.65;;
39524;SDS011;25203;50.754;6.978;2024-01-30T05:25:06;13.45;;;7.88;;
39524;SDS011;25203;50.754;6.978;2024-01-30T05:27:07;15.77;;;8.43;;
39524;SDS011;25203;50.754;6.978;2024-01-30T05:29:08;12.10;;;8.13;;
39524;SDS011;25203;50.754;6.978;2024-01-30T05:31:08;11.48;;;8.18;;
39524;SDS011;25203;50.754;6.978;2024-01-30T05:33:09;11.45;;;7.93;;
39524;SDS011;25203;50.754;6.978;2024-01-30T05:35:12;14.93;;;8.43;;
39524;SDS011;25203;50.754;6.978;2024-01-30T05:37:12;12.02;;;8.50;;
39524;SDS011;25203;50.754;6.978;2024-01-30T05:39:16;14.35;;;7.47;;
39524;SDS011;25203;50.754;6.978;2024-01-30T05:41:17;10.77;;;8.25;;
39524;SDS011;25203;50.754;6.978;2024-01-30T05:43:18;13.27;;;7.75;;
39524;SDS011;25203;50.754;6.978;2024-01-30T05:45:18;14.50;;;7.82;;
39524;SDS011;25203;50.754;6.978;2024-01-30T05:47:19;13.68;;;7.72;;
39524;SDS011;25203;50.754;6.978;2024-01-30T05:49:20;13.13;;;8.32;;
39524;SDS011;25203;50.754;6.978;2024-01-30T05:51:20;12.68;;;8.70;;
39524;SDS011;25203;50.754;6.978;2024-01-30T05:53:21;11.75;;;7.55;;
39524;SDS011;25203;50.754;6.978;2024-01-30T05:55:21;11.57;;;8.23;;
39524;SDS011;25203;50.754;6.978;2024-01-30T05:57:22;11.60;;;8.32;;
39524;SDS011;25203;50.754;6.978;2024-01-30T05:59:22;12.38;;;7.60;;
39524;SDS011;25203;50.754;6.978;2024-01-30T06:01:23;16.33;;;7.78;;
39524;SDS011;25203;50.754;6.978;2024-01-30T06:03:24;13.50;;;8.45;;
39524;SDS011;25203;50.754;6.978;2024-01-30T06:05:24;17.50;;;8.77;;
39524;SDS011;25203;50.754;6.978;2024-01-30T06:07:25;12.18;;;8.48;;
39524;SDS011;25203;50.754;6.978;2024-01-30T06:09:25;12.77;;;7.30;;
39524;SDS011;25203;50.754;6.978;2024-01-30T06:11:26;9.10;;;6.43;;
39524;SDS011;25203;50.754;6.978;2024-01-30T06:13:27;9.52;;;7.10;;
39524;SDS011;25203;50.754;6.978;2024-01-30T06:15:27;15.60;;;8.23;;
39524;SDS011;25203;50.754;6.978;2024-01-30T06:17:29;12.32;;;8.23;;
39524;SDS011;25203;50.754;6.978;2024-01-30T06:19:30;13.50;;;8.45;;
39524;SDS011;25203;50.754;6.978;2024-01-30T06:21:31;13.43;;;8.85;;
39524;SDS011;25203;50.754;6.978;2024-01-30T06:23:32;13.00;;;7.75;;
39524;SDS011;25203;50.754;6.978;2024-01-30T06:25:32;12.40;;;7.82;;
39524;SDS011;25203;50.754;6.978;2024-01-30T06:27:33;12.27;;;8.93;;
39524;SDS011;25203;50.754;6.978;2024-01-30T06:29:34;14.85;;;9.10;;
39524;SDS011;25203;50.754;6.978;2024-01-30T06:31:39;15.52;;;9.52;;
39524;SDS011;25203;50.754;6.978;2024-01-30T06:33:43;13.35;;;9.52;;
39524;SDS011;25203;50.754;6.978;2024-01-30T06:35:43;14.52;;;8.68;;
39524;SDS011;25203;50.754;6.978;2024-01-30T06:37:45;15.07;;;8.77;;
39524;SDS011;25203;50.754;6.978;2024-01-30T06:39:46;11.82;;;7.93;;
39524;SDS011;25203;50.754;6.978;2024-01-30T06:41:46;12.90;;;8.48;;
39524;SDS011;25203;50.754;6.978;2024-01-30T06:43:47;13.10;;;8.43;;
39524;SDS011;25203;50.754;6.978;2024-01-30T06:45:48;13.70;;;8.48;;
39524;SDS011;25203;50.754;6.978;2024-01-30T06:47:48;10.35;;;7.70;;
39524;SDS011;25203;50.754;6.978;2024-01-30T06:49:49;14.25;;;8.73;;
39524;SDS011;25203;50.754;6.978;2024-01-30T06:51:49;13.13;;;8.07;;
39524;SDS011;25203;50.754;6.978;2024-01-30T06:53:50;14.27;;;7.88;;
39524;SDS011;25203;50.754;6.978;2024-01-30T06:55:51;11.10;;;7.45;;
39524;SDS011;25203;50.754;6.978;2024-01-30T06:57:52;17.63;;;8.05;;
39524;SDS011;25203;50.754;6.978;2024-01-30T06:59:52;12.43;;;7.95;;
39524;SDS011;25203;50.754;6.978;2024-01-30T07:01:53;11.20;;;7.72;;
39524;SDS011;25203;50.754;6.978;2024-01-30T07:03:54;15.50;;;8.32;;
39524;SDS011;25203;50.754;6.978;2024-01-30T07:05:54;13.82;;;7.82;;
39524;SDS011;25203;50.754;6.978;2024-01-30T07:07:55;11.00;;;8.15;;
39524;SDS011;25203;50.754;6.978;2024-01-30T07:09:56;15.90;;;7.57;;
39524;SDS011;25203;50.754;6.978;2024-01-30T07:11:56;13.27;;;7.40;;
39524;SDS011;25203;50.754;6.978;2024-01-30T07:13:58;11.25;;;8.00;;
39524;SDS011;25203;50.754;6.978;2024-01-30T07:15:59;12.73;;;7.93;;
39524;SDS011;25203;50.754;6.978;2024-01-30T07:17:59;17.50;;;8.13;;
39524;SDS011;25203;50.754;6.978;2024-01-30T07:20:00;10.27;;;6.63;;
39524;SDS011;25203;50.754;6.978;2024-01-30T07:22:03;13.63;;;7.45;;
39524;SDS011;25203;50.754;6.978;2024-01-30T07:24:04;14.57;;;7.55;;
39524;SDS011;25203;50.754;6.978;2024-01-30T07:26:05;11.32;;;7.72;;
39524;SDS011;25203;50.754;6.978;2024-01-30T07:28:07;13.27;;;8.07;;
39524;SDS011;25203;50.754;6.978;2024-01-30T07:30:09;11.23;;;7.70;;
39524;SDS011;25203;50.754;6.978;2024-01-30T07:32:10;13.32;;;7.63;;
39524;SDS011;25203;50.754;6.978;2024-01-30T07:34:11;13.10;;;7.25;;
39524;SDS011;25203;50.754;6.978;2024-01-30T07:36:12;12.65;;;8.07;;
39524;SDS011;25203;50.754;6.978;2024-01-30T07:38:12;11.48;;;7.30;;
39524;SDS011;25203;50.754;6.978;2024-01-30T07:40:13;13.23;;;7.85;;
39524;SDS011;25203;50.754;6.978;2024-01-30T07:42:14;13.45;;;7.65;;
39524;SDS011;25203;50.754;6.978;2024-01-30T07:44:14;9.40;;;6.65;;
39524;SDS011;25203;50.754;6.978;2024-01-30T07:46:16;10.05;;;7.25;;
39524;SDS011;25203;50.754;6.978;2024-01-30T07:48:16;12.63;;;7.30;;
39524;SDS011;25203;50.754;6.978;2024-01-30T07:50:17;9.57;;;6.88;;
39524;SDS011;25203;50.754;6.978;2024-01-30T07:52:18;17.73;;;7.55;;
39524;SDS011;25203;50.754;6.978;2024-01-30T07:54:19;10.18;;;7.10;;
39524;SDS011;25203;50.754;6.978;2024-01-30T07:56:20;9.32;;;6.63;;
39524;SDS011;25203;50.754;6.978;2024-01-30T07:58:20;9.18;;;6.50;;
39524;SDS011;25203;50.754;6.978;2024-01-30T08:00:21;9.82;;;7.35;;
39524;SDS011;25203;50.754;6.978;2024-01-30T08:02:22;10.23;;;7.05;;
39524;SDS011;25203;50.754;6.978;2024-01-30T08:04:22;15.13;;;7.63;;
39524;SDS011;25203;50.754;6.978;2024-01-30T08:06:23;19.55;;;7.97;;
39524;SDS011;25203;50.754;6.978;2024-01-30T08:08:24;9.38;;;6.85;;
39524;SDS011;25203;50.754;6.978;2024-01-30T08:10:25;8.95;;;6.38;;
39524;SDS011;25203;50.754;6.978;2024-01-30T08:12:26;9.00;;;6.57;;
39524;SDS011;25203;50.754;6.978;2024-01-30T08:14:26;14.90;;;7.70;;
39524;SDS011;25203;50.754;6.978;2024-01-30T08:16:28;12.43;;;8.70;;
39524;SDS011;25203;50.754;6.978;2024-01-30T08:18:28;13.30;;;8.38;;
39524;SDS011;25203;50.754;6.978;2024-01-30T08:20:29;10.52;;;8.13;;
39524;SDS011;25203;50.754;6.978;2024-01-30T08:22:30;13.85;;;8.38;;
39524;SDS011;25203;50.754;6.978;2024-01-30T08:24:31;17.52;;;8.80;;
39524;SDS011;25203;50.754;6.978;2024-01-30T08:26:31;10.35;;;8.02;;
39524;SDS011;25203;50.754;6.978;2024-01-30T08:28:32;13.85;;;8.05;;
39524;SDS011;25203;50.754;6.978;2024-01-30T08:30:33;12.30;;;7.50;;
39524;SDS011;25203;50.754;6.978;2024-01-30T08:32:33;10.02;;;6.90;;
39524;SDS011;25203;50.754;6.978;2024-01-30T08:34:34;14.93;;;7.28;;
39524;SDS011;25203;50.754;6.978;2024-01-30T08:36:35;11.98;;;7.45;;
39524;SDS011;25203;50.754;6.978;2024-01-30T08:38:36;12.77;;;6.95;;
39524;SDS011;25203;50.754;6.978;2024-01-30T08:40:37;14.73;;;6.90;;
39524;SDS011;25203;50.754;6.978;2024-01-30T08:42:37;8.52;;;6.60;;
39524;SDS011;25203;50.754;6.978;2024-01-30T08:44:38;11.10;;;6.63;;
39524;SDS011;25203;50.754;6.978;2024-01-30T08:46:39;9.52;;;5.97;;
39524;SDS011;25203;50.754;6.978;2024-01-30T08:48:39;8.02;;;5.68;;
39524;SDS011;25203;50.754;6.978;2024-01-30T08:50:41;8.60;;;6.32;;
39524;SDS011;25203;50.754;6.978;2024-01-30T08:52:41;8.15;;;5.35;;
39524;SDS011;25203;50.754;6.978;2024-01-30T08:54:42;7.88;;;5.32;;
39524;SDS011;25203;50.754;6.978;2024-01-30T08:56:43;12.48;;;6.28;;
39524;SDS011;25203;50.754;6.978;2024-01-30T08:58:44;6.82;;;5.00;;
39524;SDS011;25203;50.754;6.978;2024-01-30T09:00:44;9.38;;;5.50;;
39524;SDS011;25203;50.754;6.978;2024-01-30T09:02:45;7.32;;;5.32;;
39524;SDS011;25203;50.754;6.978;2024-01-30T09:04:45;13.27;;;5.55;;
39524;SDS011;25203;50.754;6.978;2024-01-30T09:06:47;7.95;;;5.38;;
39524;SDS011;25203;50.754;6.978;2024-01-30T09:08:49;8.63;;;4.53;;
39524;SDS011;25203;50.754;6.978;2024-01-30T09:10:49;7.95;;;5.05;;
39524;SDS011;25203;50.754;6.978;2024-01-30T09:12:50;7.07;;;4.55;;
39524;SDS011;25203;50.754;6.978;2024-01-30T09:14:51;9.63;;;5.28;;
39524;SDS011;25203;50.754;6.978;2024-01-30T09:16:51;10.30;;;5.70;;
39524;SDS011;25203;50.754;6.978;2024-01-30T09:18:52;6.97;;;5.18;;
39524;SDS011;25203;50.754;6.978;2024-01-30T09:20:52;8.20;;;5.32;;
39524;SDS011;25203;50.754;6.978;2024-01-30T09:22:53;10.93;;;4.90;;
39524;SDS011;25203;50.754;6.978;2024-01-30T09:24:54;7.57;;;4.93;;
39524;SDS011;25203;50.754;6.978;2024-01-30T09:26:54;9.43;;;4.78;;
39524;SDS011;25203;50.754;6.978;2024-01-30T09:28:55;6.53;;;4.43;;
39524;SDS011;25203;50.754;6.978;2024-01-30T09:30:55;5.95;;;4.07;;
39524;SDS011;25203;50.754;6.978;2024-01-30T09:32:56;7.07;;;4.45;;
39524;SDS011;25203;50.754;6.978;2024-01-30T09:34:56;7.82;;;4.00;;
39524;SDS011;25203;50.754;6.978;2024-01-30T09:36:58;10.80;;;4.60;;
39524;SDS011;25203;50.754;6.978;2024-01-30T09:39:00;5.78;;;3.50;;
39524;SDS011;25203;50.754;6.978;2024-01-30T09:41:02;8.35;;;3.90;;
39524;SDS011;25203;50.754;6.978;2024-01-30T09:43:07;5.85;;;4.30;;
39524;SDS011;25203;50.754;6.978;2024-01-30T09:45:08;5.00;;;3.60;;
39524;SDS011;25203;50.754;6.978;2024-01-30T09:47:13;7.35;;;4.20;;
39524;SDS011;25203;50.754;6.978;2024-01-30T09:49:16;6.57;;;3.58;;
39524;SDS011;25203;50.754;6.978;2024-01-30T09:51:18;7.15;;;3.75;;
39524;SDS011;25203;50.754;6.978;2024-01-30T09:53:19;9.30;;;3.83;;
39524;SDS011;25203;50.754;6.978;2024-01-30T09:55:21;5.63;;;3.90;;
39524;SDS011;25203;50.754;6.978;2024-01-30T09:57:22;6.60;;;4.38;;
39524;SDS011;25203;50.754;6.978;2024-01-30T09:59:23;6.57;;;3.90;;
39524;SDS011;25203;50.754;6.978;2024-01-30T10:01:23;6.78;;;3.67;;
39524;SDS011;25203;50.754;6.978;2024-01-30T10:03:25;7.72;;;3.55;;
39524;SDS011;25203;50.754;6.978;2024-01-30T10:05:27;12.90;;;4.93;;
39524;SDS011;25203;50.754;6.978;2024-01-30T10:07:28;5.93;;;3.92;;
39524;SDS011;25203;50.754;6.978;2024-01-30T10:09:31;8.27;;;4.50;;
39524;SDS011;25203;50.754;6.978;2024-01-30T10:11:33;6.45;;;3.92;;
39524;SDS011;25203;50.754;6.978;2024-01-30T10:13:34;8.55;;;4.60;;
39524;SDS011;25203;50.754;6.978;2024-01-30T10:15:34;6.78;;;4.05;;
39524;SDS011;25203;50.754;6.978;2024-01-30T10:17:38;7.03;;;4.25;;
39524;SDS011;25203;50.754;6.978;2024-01-30T10:19:39;5.13;;;4.00;;
39524;SDS011;25203;50.754;6.978;2024-01-30T10:21:41;7.13;;;4.28;;
39524;SDS011;25203;50.754;6.978;2024-01-30T10:23:43;8.48;;;4.72;;
39524;SDS011;25203;50.754;6.978;2024-01-30T10:25:44;9.60;;;4.45;;
39524;SDS011;25203;50.754;6.978;2024-01-30T10:27:45;8.82;;;4.60;;
39524;SDS011;25203;50.754;6.978;2024-01-30T10:29:48;9.05;;;5.07;;
39524;SDS011;25203;50.754;6.978;2024-01-30T10:32:01;8.80;;;4.40;;
39524;SDS011;25203;50.754;6.978;2024-01-30T10:34:03;13.45;;;4.85;;
39524;SDS011;25203;50.754;6.978;2024-01-30T10:36:04;6.40;;;4.30;;
39524;SDS011;25203;50.754;6.978;2024-01-30T10:38:05;7.13;;;4.15;;
39524;SDS011;25203;50.754;6.978;2024-01-30T10:40:11;5.72;;;4.18;;
39524;SDS011;25203;50.754;6.978;2024-01-30T10:42:15;6.47;;;4.28;;
39524;SDS011;25203;50.754;6.978;2024-01-30T10:44:18;6.03;;;4.40;;
39524;SDS011;25203;50.754;6.978;2024-01-30T10:46:22;6.63;;;4.68;;
39524;SDS011;25203;50.754;6.978;2024-01-30T10:48:31;9.02;;;4.75;;
39524;SDS011;25203;50.754;6.978;2024-01-30T10:50:36;5.85;;;4.07;;
39524;SDS011;25203;50.754;6.978;2024-01-30T10:52:40;6.78;;;4.30;;
39524;SDS011;25203;50.754;6.978;2024-01-30T10:54:45;6.47;;;4.15;;
39524;SDS011;25203;50.754;6.978;2024-01-30T10:56:46;6.70;;;4.32;;
39524;SDS011;25203;50.754;6.978;2024-01-30T10:58:49;7.20;;;4.22;;
39524;SDS011;25203;50.754;6.978;2024-01-30T11:00:52;5.90;;;4.13;;
39524;SDS011;25203;50.754;6.978;2024-01-30T11:02:53;6.28;;;4.43;;
39524;SDS011;25203;50.754;6.978;2024-01-30T11:04:55;8.02;;;3.83;;
39524;SDS011;25203;50.754;6.978;2024-01-30T11:06:57;8.88;;;5.05;;
39524;SDS011;25203;50.754;6.978;2024-01-30T11:09:03;6.68;;;3.50;;
39524;SDS011;25203;50.754;6.978;2024-01-30T11:11:08;9.32;;;4.07;;
39524;SDS011;25203;50.754;6.978;2024-01-30T11:13:10;7.90;;;4.28;;
39524;SDS011;25203;50.754;6.978;2024-01-30T11:15:13;7.22;;;3.95;;
39524;SDS011;25203;50.754;6.978;2024-01-30T11:17:15;6.13;;;4.20;;
39524;SDS011;25203;50.754;6.978;2024-01-30T11:19:15;10.50;;;4.65;;
39524;SDS011;25203;50.754;6.978;2024-01-30T11:21:26;5.72;;;3.72;;
39524;SDS011;25203;50.754;6.978;2024-01-30T11:23:26;7.82;;;3.83;;
39524;SDS011;25203;50.754;6.978;2024-01-30T11:25:30;8.23;;;3.88;;
39524;SDS011;25203;50.754;6.978;2024-01-30T11:27:32;10.88;;;4.30;;
39524;SDS011;25203;50.754;6.978;2024-01-30T11:29:33;8.80;;;3.85;;
39524;SDS011;25203;50.754;6.978;2024-01-30T11:31:35;9.57;;;4.00;;
39524;SDS011;25203;50.754;6.978;2024-01-30T11:33:37;7.70;;;4.15;;
39524;SDS011;25203;50.754;6.978;2024-01-30T11:35:41;7.30;;;3.60;;
39524;SDS011;25203;50.754;6.978;2024-01-30T11:37:42;7.93;;;4.03;;
39524;SDS011;25203;50.754;6.978;2024-01-30T11:39:45;6.22;;;4.38;;
39524;SDS011;25203;50.754;6.978;2024-01-30T11:41:47;5.82;;;3.53;;
39524;SDS011;25203;50.754;6.978;2024-01-30T11:43:51;10.18;;;4.07;;
39524;SDS011;25203;50.754;6.978;2024-01-30T11:45:53;6.60;;;4.22;;
39524;SDS011;25203;50.754;6.978;2024-01-30T11:47:53;7.80;;;4.32;;
39524;SDS011;25203;50.754;6.978;2024-01-30T11:49:55;7.43;;;3.83;;
39524;SDS011;25203;50.754;6.978;2024-01-30T11:51:55;9.48;;;4.57;;
39524;SDS011;25203;50.754;6.978;2024-01-30T11:53:56;7.13;;;4.22;;
39524;SDS011;25203;50.754;6.978;2024-01-30T11:55:57;6.90;;;4.15;;
39524;SDS011;25203;50.754;6.978;2024-01-30T11:57:58;10.35;;;4.18;;
39524;SDS011;25203;50.754;6.978;2024-01-30T11:59:59;9.38;;;4.45;;
39524;SDS011;25203;50.754;6.978;2024-01-30T12:01:59;7.60;;;4.28;;